createdAt,value
2023-02-23T00:02:07.108Z,10.60
2023-02-23T00:04:40.040Z,10.60
2023-02-23T00:07:12.904Z,10.60
2023-02-23T00:09:43.455Z,10.50
2023-02-23T00:12:13.634Z,10.50
2023-02-23T00:14:44.095Z,10.50
2023-02-23T00:17:15.072Z,10.50
2023-02-23T00:19:46.243Z,10.50
2023-02-23T00:22:19.028Z,10.50
2023-02-23T00:24:50.248Z,10.40
2023-02-23T00:27:21.501Z,10.50
2023-02-23T00:29:52.901Z,10.50
2023-02-23T00:32:25.618Z,10.50
2023-02-23T00:34:58.031Z,10.50
2023-02-23T00:37:30.840Z,10.50
2023-02-23T00:40:00.923Z,10.40
2023-02-23T00:42:33.200Z,10.40
2023-02-23T00:45:08.575Z,10.30
2023-02-23T00:47:39.074Z,10.30
2023-02-23T00:50:12.809Z,10.30
2023-02-23T00:52:47.025Z,10.30
2023-02-23T00:55:40.785Z,10.30
2023-02-23T00:58:14.105Z,10.20
2023-02-23T01:00:47.453Z,10.30
2023-02-23T01:03:17.610Z,10.30
2023-02-23T01:05:50.001Z,10.20
2023-02-23T01:08:23.194Z,10.20
2023-02-23T01:10:57.552Z,10.20
2023-02-23T01:13:28.970Z,10.20
2023-02-23T01:15:59.131Z,10.20
2023-02-23T01:18:29.491Z,10.20
2023-02-23T01:20:59.642Z,10.20
2023-02-23T01:23:32.403Z,10.20
2023-02-23T01:26:05.124Z,10.30
2023-02-23T01:28:38.559Z,10.10
2023-02-23T01:31:12.319Z,10.10
2023-02-23T01:33:42.506Z,10.10
2023-02-23T01:36:13.119Z,10.10
2023-02-23T01:38:45.956Z,10.10
2023-02-23T01:41:16.282Z,10.00
2023-02-23T01:44:01.729Z,9.90
2023-02-23T01:46:36.026Z,9.90
2023-02-23T01:49:11.708Z,9.80
2023-02-23T01:51:48.537Z,9.90
2023-02-23T01:54:31.058Z,10.00
2023-02-23T01:57:05.950Z,10.00
2023-02-23T01:59:42.754Z,10.10
2023-02-23T02:02:14.205Z,10.20
2023-02-23T02:04:46.759Z,10.10
2023-02-23T02:07:23.433Z,10.10
2023-02-23T02:10:14.256Z,10.00
2023-02-23T02:12:47.878Z,10.00
2023-02-23T02:15:20.001Z,9.90
2023-02-23T02:18:09.705Z,10.00
2023-02-23T02:21:20.046Z,9.90
2023-02-23T02:24:55.619Z,9.90
2023-02-23T02:27:58.537Z,9.90
2023-02-23T02:31:00.691Z,9.90
2023-02-23T02:34:25.409Z,10.00
2023-02-23T02:37:45.175Z,10.00
2023-02-23T02:40:34.348Z,10.00
2023-02-23T02:43:14.741Z,10.00
2023-02-23T02:45:53.935Z,10.10
2023-02-23T02:48:41.892Z,10.20
2023-02-23T02:51:24.810Z,10.30
2023-02-23T02:54:07.317Z,10.30
2023-02-23T02:56:44.043Z,10.30
2023-02-23T02:59:32.174Z,10.20
2023-02-23T03:02:14.876Z,10.20
2023-02-23T03:04:58.032Z,10.10
2023-02-23T03:07:50.452Z,10.00
2023-02-23T03:10:50.494Z,10.00
2023-02-23T03:13:51.803Z,10.00
2023-02-23T03:16:46.721Z,10.00
2023-02-23T03:19:36.851Z,10.00
2023-02-23T03:22:34.222Z,10.00
2023-02-23T03:25:24.923Z,9.90
2023-02-23T03:28:27.855Z,9.80
2023-02-23T03:31:24.669Z,9.70
2023-02-23T03:34:18.801Z,9.70
2023-02-23T03:37:14.513Z,9.60
2023-02-23T03:40:06.794Z,9.60
2023-02-23T03:42:54.271Z,9.60
2023-02-23T03:45:43.276Z,9.90
2023-02-23T03:48:31.415Z,10.00
2023-02-23T03:51:24.372Z,10.20
2023-02-23T03:54:19.108Z,10.20
2023-02-23T03:57:08.028Z,10.00
2023-02-23T03:59:58.568Z,9.80
2023-02-23T04:02:46.411Z,9.70
2023-02-23T04:05:34.060Z,9.60
2023-02-23T04:08:24.898Z,9.60
2023-02-23T04:11:20.701Z,9.60
2023-02-23T04:13:58.744Z,9.50
2023-02-23T04:16:28.737Z,9.40
2023-02-23T04:19:02.433Z,9.50
2023-02-23T04:21:32.550Z,9.40
2023-02-23T04:24:02.583Z,9.40
2023-02-23T04:26:32.855Z,9.30
2023-02-23T04:29:02.930Z,9.30
2023-02-23T04:31:41.907Z,9.30
2023-02-23T04:34:15.229Z,9.40
2023-02-23T04:36:45.446Z,9.30
2023-02-23T04:39:15.487Z,9.30
2023-02-23T04:41:49.000Z,9.30
2023-02-23T04:44:19.404Z,9.40
2023-02-23T04:46:49.789Z,9.30
2023-02-23T04:49:22.606Z,9.30
2023-02-23T04:51:52.728Z,9.20
2023-02-23T04:54:23.026Z,9.20
2023-02-23T04:56:53.303Z,9.20
2023-02-23T04:59:25.635Z,9.20
2023-02-23T05:01:56.025Z,9.20
2023-02-23T05:04:29.033Z,9.10
2023-02-23T05:06:59.579Z,9.10
2023-02-23T05:13:19.977Z,9.10
2023-02-23T05:15:50.934Z,9.20
2023-02-23T05:18:21.841Z,9.20
2023-02-23T05:20:55.271Z,9.20
2023-02-23T05:23:26.193Z,9.20
2023-02-23T05:25:56.403Z,9.20
2023-02-23T05:28:27.105Z,9.20
2023-02-23T05:30:57.258Z,9.20
2023-02-23T05:33:27.517Z,9.20
2023-02-23T05:36:01.101Z,9.10
2023-02-23T05:38:31.455Z,9.10
2023-02-23T05:41:01.854Z,9.20
2023-02-23T05:43:32.146Z,9.10
2023-02-23T05:46:02.561Z,9.10
2023-02-23T05:48:32.695Z,9.20
2023-02-23T05:51:09.005Z,9.20
2023-02-23T05:53:40.830Z,9.20
2023-02-23T05:56:21.336Z,9.10
2023-02-23T05:58:51.716Z,9.10
2023-02-23T06:01:23.175Z,9.20
2023-02-23T06:03:54.434Z,9.20
2023-02-23T06:06:28.530Z,9.20
2023-02-23T06:08:59.596Z,9.30
2023-02-23T06:11:31.158Z,9.20
2023-02-23T06:14:02.211Z,9.10
2023-02-23T06:16:32.393Z,9.10
2023-02-23T06:19:02.775Z,9.20
2023-02-23T06:21:37.611Z,9.20
2023-02-23T06:24:08.783Z,9.20
2023-02-23T06:26:38.944Z,9.20
2023-02-23T06:29:09.301Z,9.10
2023-02-23T06:31:39.589Z,9.00
2023-02-23T06:34:09.830Z,9.00
2023-02-23T06:36:42.524Z,9.00
2023-02-23T06:39:17.378Z,9.00
2023-02-23T06:41:47.455Z,9.00
2023-02-23T06:44:17.679Z,8.90
2023-02-23T06:46:47.879Z,8.90
2023-02-23T06:49:18.111Z,9.00
2023-02-23T06:51:50.852Z,9.00
2023-02-23T06:54:21.390Z,8.90
2023-02-23T06:56:51.512Z,8.90
2023-02-23T06:59:21.901Z,8.90
2023-02-23T07:01:52.161Z,8.90
2023-02-23T07:04:22.429Z,8.90
2023-02-23T07:06:55.190Z,8.90
2023-02-23T07:09:25.610Z,8.90
2023-02-23T07:11:56.557Z,8.90
2023-02-23T07:14:27.447Z,8.90
2023-02-23T07:16:58.293Z,8.90
2023-02-23T07:19:28.794Z,8.90
2023-02-23T07:22:01.642Z,9.00
2023-02-23T07:24:31.829Z,9.00
2023-02-23T07:27:01.938Z,9.10
2023-02-23T07:29:32.130Z,9.10
2023-02-23T07:32:02.744Z,9.10
2023-02-23T07:34:32.969Z,9.00
2023-02-23T07:37:06.065Z,9.00
2023-02-23T07:39:36.172Z,9.00
2023-02-23T07:42:07.426Z,9.00
2023-02-23T07:44:38.190Z,9.00
2023-02-23T07:47:08.398Z,9.00
2023-02-23T07:49:38.617Z,9.10
2023-02-23T07:52:11.331Z,9.10
2023-02-23T07:54:41.474Z,9.20
2023-02-23T07:57:12.358Z,9.20
2023-02-23T07:59:44.926Z,9.30
2023-02-23T08:02:16.739Z,9.20
2023-02-23T08:04:48.365Z,9.30
2023-02-23T08:07:21.148Z,9.30
2023-02-23T08:09:51.985Z,9.30
2023-02-23T08:12:22.180Z,9.30
2023-02-23T08:14:53.319Z,9.30
2023-02-23T08:17:27.525Z,9.30
2023-02-23T08:19:57.707Z,9.40
2023-02-23T08:22:37.852Z,9.50
2023-02-23T08:25:14.076Z,9.40
2023-02-23T08:27:44.419Z,9.40
2023-02-23T08:30:17.354Z,9.40
2023-02-23T08:32:47.911Z,9.50
2023-02-23T08:35:20.201Z,9.50
2023-02-23T08:37:53.299Z,9.60
2023-02-23T08:40:23.508Z,9.70
2023-02-23T08:42:54.261Z,9.60
2023-02-23T08:45:29.414Z,9.70
2023-02-23T08:48:00.031Z,9.70
2023-02-23T08:50:30.235Z,9.70
2023-02-23T08:53:07.533Z,9.70
2023-02-23T08:55:38.180Z,9.70
2023-02-23T08:58:10.786Z,9.80
2023-02-23T09:00:41.399Z,9.70
2023-02-23T09:03:14.058Z,9.80
2023-02-23T09:05:44.317Z,10.00
2023-02-23T09:08:18.538Z,10.00
2023-02-23T09:10:48.660Z,10.00
2023-02-23T09:13:19.770Z,10.00
2023-02-23T09:15:50.909Z,9.90
2023-02-23T09:18:27.533Z,9.90
2023-02-23T09:20:58.001Z,9.80
2023-02-23T09:23:32.192Z,9.90
2023-02-23T09:26:06.772Z,9.90
2023-02-23T09:28:40.681Z,9.80
2023-02-23T09:31:14.176Z,10.00
2023-02-23T09:33:46.915Z,10.00
2023-02-23T09:36:20.186Z,10.00
2023-02-23T09:38:57.231Z,10.10
2023-02-23T09:42:22.936Z,10.10
2023-02-23T09:45:24.497Z,10.10
2023-02-23T09:48:12.645Z,10.10
2023-02-23T09:50:53.606Z,10.00
2023-02-23T09:53:43.665Z,9.90
2023-02-23T09:56:33.144Z,9.80
2023-02-23T09:59:04.618Z,9.80
2023-02-23T10:02:00.091Z,9.80
2023-02-23T10:04:34.190Z,9.90
2023-02-23T10:07:14.989Z,9.90
2023-02-23T10:10:13.214Z,10.00
2023-02-23T10:12:56.966Z,10.00
2023-02-23T10:15:37.614Z,9.80
2023-02-23T10:18:44.964Z,9.70
2023-02-23T10:21:35.377Z,9.80
2023-02-23T10:24:14.003Z,9.90
2023-02-23T10:26:50.634Z,9.90
2023-02-23T10:29:33.962Z,9.90
2023-02-23T10:32:10.906Z,10.00
2023-02-23T10:34:43.043Z,10.20
2023-02-23T10:37:16.840Z,10.10
2023-02-23T10:39:49.997Z,10.20
2023-02-23T10:42:28.943Z,10.30
2023-02-23T10:45:05.283Z,10.30
2023-02-23T10:47:39.152Z,10.40
2023-02-23T10:50:15.989Z,10.50
2023-02-23T10:52:50.679Z,10.50
2023-02-23T10:55:30.214Z,10.60
2023-02-23T10:58:16.998Z,10.60
2023-02-23T11:01:08.891Z,10.80
2023-02-23T11:03:45.760Z,11.00
2023-02-23T11:06:33.769Z,11.10
2023-02-23T11:09:43.772Z,11.10
2023-02-23T11:12:25.530Z,11.10
2023-02-23T11:14:58.306Z,11.00
2023-02-23T11:17:38.126Z,11.00
2023-02-23T11:20:25.300Z,11.20
2023-02-23T11:22:59.052Z,11.10
2023-02-23T11:25:35.651Z,11.00
2023-02-23T11:28:06.106Z,10.90
2023-02-23T11:30:47.254Z,10.70
2023-02-23T11:33:29.666Z,10.60
2023-02-23T11:36:02.763Z,10.50
2023-02-23T11:38:35.540Z,10.40
2023-02-23T11:41:20.399Z,10.30
2023-02-23T11:43:54.890Z,10.20
2023-02-23T11:46:32.063Z,10.20
2023-02-23T11:49:09.710Z,10.40
2023-02-23T11:51:44.567Z,10.40
2023-02-23T11:54:31.398Z,10.50
2023-02-23T11:57:02.760Z,10.40
2023-02-23T11:59:38.285Z,10.40
2023-02-23T12:02:25.179Z,10.40
2023-02-23T12:05:10.180Z,10.40
2023-02-23T12:07:44.270Z,10.30
2023-02-23T12:10:24.507Z,10.30
2023-02-23T12:13:07.441Z,10.30
2023-02-23T12:15:50.748Z,10.40
2023-02-23T12:18:47.192Z,10.40
2023-02-23T12:21:38.203Z,10.50
2023-02-23T12:24:20.976Z,10.60
2023-02-23T12:27:01.664Z,10.70
2023-02-23T12:29:45.072Z,10.80
2023-02-23T12:32:23.389Z,10.80
2023-02-23T12:35:01.604Z,10.90
2023-02-23T12:37:42.861Z,10.80
2023-02-23T12:40:20.599Z,10.90
2023-02-23T12:43:04.632Z,10.90
2023-02-23T12:45:44.710Z,10.80
2023-02-23T12:48:38.612Z,10.80
2023-02-23T12:51:25.234Z,10.80
2023-02-23T12:53:58.071Z,10.70
2023-02-23T12:56:53.628Z,10.60
2023-02-23T13:00:23.828Z,10.60
2023-02-23T13:03:22.223Z,10.40
2023-02-23T13:06:05.215Z,10.30
2023-02-23T13:09:09.589Z,10.30
2023-02-23T13:12:17.679Z,10.20
2023-02-23T13:15:01.786Z,10.10
2023-02-23T13:17:49.869Z,10.20
2023-02-23T13:20:27.755Z,10.10
2023-02-23T13:23:14.208Z,10.10
2023-02-23T13:25:56.151Z,10.10
2023-02-23T13:28:52.164Z,10.00
2023-02-23T13:31:29.866Z,9.90
2023-02-23T13:34:03.609Z,9.70
2023-02-23T13:36:37.491Z,9.70
2023-02-23T13:39:45.366Z,9.60
2023-02-23T13:42:35.641Z,9.60
2023-02-23T13:45:44.098Z,9.40
2023-02-23T13:48:47.326Z,9.30
2023-02-23T13:51:41.472Z,9.30
2023-02-23T13:54:30.230Z,9.50
2023-02-23T13:57:05.261Z,9.60
2023-02-23T13:59:46.095Z,9.70
2023-02-23T14:02:43.951Z,9.90
2023-02-23T14:05:25.098Z,9.80
2023-02-23T14:08:02.393Z,9.90
2023-02-23T14:10:41.488Z,9.80
2023-02-23T14:13:31.262Z,9.80
2023-02-23T14:16:24.227Z,9.80
2023-02-23T14:19:40.035Z,9.70
2023-02-23T14:22:17.814Z,9.60
2023-02-23T14:24:48.224Z,9.70
2023-02-23T14:27:34.142Z,9.60
2023-02-23T14:30:25.470Z,9.60
2023-02-23T14:33:21.186Z,9.60
2023-02-23T14:35:54.682Z,9.80
2023-02-23T14:38:47.589Z,9.80
2023-02-23T14:41:23.499Z,9.60
2023-02-23T14:43:58.035Z,9.60
2023-02-23T14:46:30.738Z,9.50
2023-02-23T14:49:05.316Z,9.70
2023-02-23T14:51:45.013Z,9.60
2023-02-23T14:54:33.845Z,9.70
2023-02-23T14:57:22.776Z,9.80
2023-02-23T15:00:05.478Z,9.90
2023-02-23T15:02:45.853Z,10.00
2023-02-23T15:05:28.847Z,10.00
2023-02-23T15:08:07.707Z,10.00
2023-02-23T15:10:41.858Z,9.90
2023-02-23T15:13:19.114Z,10.00
2023-02-23T15:15:49.809Z,10.10
2023-02-23T15:18:29.435Z,10.10
2023-02-23T15:21:00.027Z,10.10
2023-02-23T15:23:39.906Z,10.10
2023-02-23T15:26:24.438Z,10.10
2023-02-23T15:28:58.195Z,10.20
2023-02-23T15:31:35.750Z,10.10
2023-02-23T15:34:05.979Z,10.10
2023-02-23T15:36:41.356Z,10.00
2023-02-23T15:39:22.282Z,10.10
2023-02-23T15:41:53.387Z,9.90
2023-02-23T15:44:32.206Z,9.90
2023-02-23T15:47:19.481Z,10.10
2023-02-23T15:49:50.555Z,10.20
2023-02-23T15:52:27.428Z,10.20
2023-02-23T15:55:06.447Z,10.10
2023-02-23T15:57:49.939Z,10.10
2023-02-23T16:00:32.714Z,10.10
2023-02-23T16:03:06.236Z,9.90
2023-02-23T16:05:47.079Z,9.70
2023-02-23T16:08:27.271Z,9.90
2023-02-23T16:11:12.094Z,9.90
2023-02-23T16:13:46.881Z,9.70
2023-02-23T16:16:25.675Z,9.80
2023-02-23T16:19:01.807Z,9.80
2023-02-23T16:21:34.884Z,9.70
2023-02-23T16:24:13.426Z,9.70
2023-02-23T16:26:53.798Z,9.70
2023-02-23T16:29:41.545Z,9.70
2023-02-23T16:32:23.685Z,9.70
2023-02-23T16:35:02.029Z,9.60
2023-02-23T16:37:32.207Z,9.50
2023-02-23T16:40:05.493Z,9.40
2023-02-23T16:42:38.728Z,9.30
2023-02-23T16:45:17.746Z,9.30
2023-02-23T16:47:50.365Z,9.40
2023-02-23T16:50:26.030Z,9.30
2023-02-23T16:52:57.857Z,9.30
2023-02-23T16:55:31.101Z,9.40
2023-02-23T16:58:10.432Z,9.40
2023-02-23T17:00:41.800Z,9.50
2023-02-23T17:03:21.264Z,9.30
2023-02-23T17:05:51.518Z,9.40
2023-02-23T17:08:26.271Z,9.40
2023-02-23T17:10:57.930Z,9.30
2023-02-23T17:13:34.712Z,9.30
2023-02-23T17:16:09.447Z,9.10
2023-02-23T17:18:44.991Z,9.10
2023-02-23T17:21:23.873Z,9.20
2023-02-23T17:24:02.698Z,9.20
2023-02-23T17:26:32.890Z,9.20
2023-02-23T17:29:06.264Z,9.10
2023-02-23T17:31:38.090Z,9.10
2023-02-23T17:34:09.041Z,9.00
2023-02-23T17:36:39.179Z,9.00
2023-02-23T17:39:10.024Z,8.90
2023-02-23T17:41:40.205Z,8.90
2023-02-23T17:44:13.313Z,9.00
2023-02-23T17:46:43.716Z,8.90
2023-02-23T17:49:13.840Z,8.90
2023-02-23T17:51:44.948Z,8.70
2023-02-23T17:54:15.986Z,8.70
2023-02-23T17:56:48.020Z,8.80
2023-02-23T17:59:20.781Z,8.80
2023-02-23T18:01:58.777Z,8.90
2023-02-23T18:04:29.061Z,8.90
2023-02-23T18:06:59.834Z,9.00
2023-02-23T18:09:30.712Z,9.10
2023-02-23T18:12:00.908Z,9.20
2023-02-23T18:14:33.702Z,9.20
2023-02-23T18:17:03.985Z,9.00
2023-02-23T18:19:34.742Z,8.90
2023-02-23T18:22:04.881Z,8.90
2023-02-23T18:24:36.298Z,9.00
2023-02-23T18:27:07.510Z,9.00
2023-02-23T18:29:40.238Z,9.00
2023-02-23T18:32:11.380Z,9.10
2023-02-23T18:34:41.828Z,9.00
2023-02-23T18:37:11.919Z,9.20
2023-02-23T18:39:42.132Z,9.10
2023-02-23T18:42:12.255Z,9.20
2023-02-23T18:44:45.128Z,9.20
2023-02-23T18:47:15.357Z,9.20
2023-02-23T18:49:45.736Z,9.20
2023-02-23T18:52:15.951Z,9.10
2023-02-23T18:54:46.161Z,9.10
2023-02-23T18:57:16.335Z,9.10
2023-02-23T18:59:49.180Z,9.00
2023-02-23T19:02:19.353Z,8.80
2023-02-23T19:04:49.501Z,8.70
2023-02-23T19:07:20.858Z,8.70
2023-02-23T19:09:51.516Z,8.70
2023-02-23T19:12:24.273Z,8.60
2023-02-23T19:14:57.641Z,8.50
2023-02-23T19:17:28.038Z,8.50
2023-02-23T19:20:00.555Z,8.40
2023-02-23T19:22:32.336Z,8.40
2023-02-23T19:25:02.681Z,8.40
2023-02-23T19:27:34.422Z,8.30
2023-02-23T19:30:10.282Z,8.30
2023-02-23T19:32:42.382Z,8.30
2023-02-23T19:35:17.280Z,8.30
2023-02-23T19:37:51.902Z,8.30
2023-02-23T19:40:29.226Z,8.30
2023-02-23T19:42:59.658Z,8.30
2023-02-23T19:45:32.569Z,8.30
2023-02-23T19:48:02.719Z,8.40
2023-02-23T19:50:33.081Z,8.40
2023-02-23T19:53:03.223Z,8.60
2023-02-23T19:55:33.582Z,8.80
2023-02-23T19:58:03.726Z,8.70
2023-02-23T20:00:36.775Z,8.70
2023-02-23T20:03:07.102Z,8.70
2023-02-23T20:05:44.221Z,8.70
2023-02-23T20:08:19.296Z,8.80
2023-02-23T20:10:49.427Z,8.60
2023-02-23T20:13:21.423Z,8.40
2023-02-23T20:16:03.129Z,8.40
2023-02-23T20:18:33.641Z,8.50
2023-02-23T20:21:03.856Z,8.60
2023-02-23T20:23:35.736Z,8.70
2023-02-23T20:26:09.241Z,8.70
2023-02-23T20:28:40.157Z,8.70
2023-02-23T20:31:21.171Z,8.60
2023-02-23T20:33:52.197Z,8.50
2023-02-23T20:36:25.141Z,8.50
2023-02-23T20:38:55.846Z,8.40
2023-02-23T20:41:28.026Z,8.40
2023-02-23T20:44:00.984Z,8.30
2023-02-23T20:46:34.342Z,8.30
2023-02-23T20:49:04.492Z,8.20
2023-02-23T20:51:34.602Z,8.10
2023-02-23T20:54:04.760Z,8.20
2023-02-23T20:56:34.834Z,8.10
2023-02-23T20:59:11.114Z,8.10
2023-02-23T21:01:46.260Z,8.10
2023-02-23T21:04:16.431Z,8.00
2023-02-23T21:06:47.968Z,8.00
2023-02-23T21:09:22.332Z,8.10
2023-02-23T21:11:52.523Z,8.00
2023-02-23T21:17:02.705Z,8.10
2023-02-23T21:19:32.883Z,8.20
2023-02-23T21:22:03.008Z,8.20
2023-02-23T21:24:33.980Z,8.30
2023-02-23T21:27:05.688Z,8.30
2023-02-23T21:29:36.512Z,8.30
2023-02-23T21:32:10.725Z,8.20
2023-02-23T21:34:40.955Z,8.20
2023-02-23T21:37:11.515Z,8.20
2023-02-23T21:39:41.713Z,8.20
2023-02-23T21:42:11.826Z,8.20
2023-02-23T21:44:44.478Z,8.10
2023-02-23T21:47:17.491Z,8.20
2023-02-23T21:49:49.465Z,8.20
2023-02-23T21:52:22.469Z,8.20
2023-02-23T21:54:53.330Z,8.00
2023-02-23T21:57:26.284Z,8.00
2023-02-23T21:59:57.220Z,7.90
2023-02-23T22:02:30.575Z,7.90
2023-02-23T22:05:01.390Z,7.90
2023-02-23T22:07:34.932Z,7.80
2023-02-23T22:10:06.244Z,7.80
2023-02-23T22:12:36.383Z,7.70
2023-02-23T22:15:10.440Z,7.70
2023-02-23T22:17:43.191Z,7.60
2023-02-23T22:20:20.242Z,7.50
2023-02-23T22:22:51.165Z,7.50
2023-02-23T22:25:22.953Z,7.50
2023-02-23T22:27:53.069Z,7.50
2023-02-23T22:30:23.371Z,7.50
2023-02-23T22:32:56.402Z,7.50
2023-02-23T22:35:26.612Z,7.50
2023-02-23T22:37:56.717Z,7.60
2023-02-23T22:40:27.961Z,7.70
2023-02-23T22:42:59.306Z,7.70
2023-02-23T22:45:30.468Z,7.70
2023-02-23T22:48:06.246Z,7.70
2023-02-23T22:50:36.941Z,7.60
2023-02-23T22:53:07.750Z,7.60
2023-02-23T22:55:38.382Z,7.50
2023-02-23T22:58:10.843Z,7.50
2023-02-23T23:00:40.964Z,7.50
2023-02-23T23:03:16.748Z,7.70
2023-02-23T23:05:52.401Z,7.60
2023-02-23T23:08:22.478Z,7.50
2023-02-23T23:10:52.725Z,7.40
2023-02-23T23:13:25.878Z,7.30
2023-02-23T23:16:07.470Z,7.20
2023-02-23T23:18:43.483Z,7.10
2023-02-23T23:21:16.011Z,7.00
2023-02-23T23:23:48.105Z,7.00
2023-02-23T23:26:23.823Z,7.40
2023-02-23T23:28:58.327Z,7.70
2023-02-23T23:31:35.059Z,7.80
2023-02-23T23:34:12.019Z,7.70
2023-02-23T23:36:49.474Z,7.50
2023-02-23T23:39:22.514Z,7.30
2023-02-23T23:41:53.736Z,7.20
2023-02-23T23:44:29.186Z,7.10
2023-02-23T23:46:59.939Z,7.10
2023-02-23T23:49:35.631Z,7.10
2023-02-23T23:52:06.396Z,7.10
2023-02-23T23:54:44.604Z,7.10
2023-02-23T23:57:14.989Z,7.00
2023-02-23T23:59:46.530Z,7.00
